createdAt,value
2019-04-04T00:00:49.807Z,89.2
2019-04-04T00:02:50.589Z,89.5
2019-04-04T00:04:53.265Z,89.4
2019-04-04T00:06:50.472Z,89.5
2019-04-04T00:08:50.461Z,89.3
2019-04-04T00:10:50.472Z,89.6
2019-04-04T00:12:50.673Z,89.5
2019-04-04T00:14:50.620Z,89.6
2019-04-04T00:16:49.893Z,89.6
2019-04-04T00:18:49.885Z,89.6
2019-04-04T00:20:49.965Z,89.6
2019-04-04T00:22:50.020Z,89.5
2019-04-04T00:24:50.148Z,89.7
2019-04-04T00:26:50.210Z,89.7
2019-04-04T00:28:50.283Z,89.6
2019-04-04T00:30:50.301Z,89.6
2019-04-04T00:32:53.603Z,89.0
2019-04-04T00:34:50.003Z,89.0
2019-04-04T00:36:50.119Z,88.9
2019-04-04T00:38:50.164Z,88.8
2019-04-04T00:40:50.239Z,89.0
2019-04-04T00:42:50.198Z,88.7
2019-04-04T00:44:50.151Z,88.5
2019-04-04T00:46:50.246Z,88.5
2019-04-04T00:48:50.309Z,88.5
2019-04-04T00:50:50.402Z,88.6
2019-04-04T00:52:50.452Z,88.6
2019-04-04T00:54:50.473Z,88.6
2019-04-04T00:56:50.541Z,88.5
2019-04-04T00:58:52.875Z,88.7
2019-04-04T01:00:49.842Z,88.9
2019-04-04T01:02:49.995Z,88.9
2019-04-04T01:04:50.431Z,89.1
2019-04-04T01:06:50.698Z,89.6
2019-04-04T01:08:50.698Z,89.4
2019-04-04T01:10:50.657Z,89.6
2019-04-04T01:12:53.051Z,89.6
2019-04-04T01:14:50.326Z,89.6
2019-04-04T01:16:49.842Z,89.6
2019-04-04T01:18:49.906Z,89.3
2019-04-04T01:20:51.599Z,89.6
2019-04-04T01:22:50.748Z,89.8
2019-04-04T01:24:49.899Z,89.8
2019-04-04T01:26:50.158Z,89.7
2019-04-04T01:28:50.411Z,90.1
2019-04-04T01:30:50.525Z,90.2
2019-04-04T01:32:50.646Z,90.1
2019-04-04T01:34:53.005Z,90.0
2019-04-04T01:36:50.122Z,90.5
2019-04-04T01:38:50.130Z,90.2
2019-04-04T01:40:50.138Z,90.7
2019-04-04T01:42:50.240Z,90.1
2019-04-04T01:44:50.235Z,90.2
2019-04-04T01:46:50.465Z,90.6
2019-04-04T01:48:50.978Z,90.7
2019-04-04T01:50:50.090Z,90.9
2019-04-04T01:52:50.105Z,90.8
2019-04-04T01:54:50.155Z,90.8
2019-04-04T01:56:50.434Z,90.6
2019-04-04T01:58:50.550Z,90.5
2019-04-04T02:00:50.587Z,90.9
2019-04-04T02:02:52.838Z,90.6
2019-04-04T02:04:50.415Z,90.7
2019-04-04T02:06:50.478Z,90.8
2019-04-04T02:08:50.079Z,90.8
2019-04-04T02:10:50.090Z,90.6
2019-04-04T02:12:50.088Z,90.9
2019-04-04T02:14:50.179Z,91.1
2019-04-04T02:16:51.985Z,91.3
2019-04-04T02:18:50.730Z,91.3
2019-04-04T02:20:49.805Z,91.2
2019-04-04T02:22:49.802Z,91.1
2019-04-04T02:24:49.897Z,91.1
2019-04-04T02:26:50.167Z,90.8
2019-04-04T02:28:50.253Z,90.9
2019-04-04T02:30:50.353Z,90.7
2019-04-04T02:32:50.504Z,91.1
2019-04-04T02:34:49.834Z,91.2
2019-04-04T02:36:50.323Z,91.6
2019-04-04T02:38:50.352Z,91.3
2019-04-04T02:40:50.416Z,91.4
2019-04-04T02:42:55.914Z,91.4
2019-04-04T02:44:49.968Z,91.4
2019-04-04T02:46:50.222Z,91.8
2019-04-04T02:48:50.254Z,91.7
2019-04-04T02:50:50.497Z,91.5
2019-04-04T02:52:50.566Z,92.2
2019-04-04T02:54:50.569Z,92.2
2019-04-04T02:56:49.937Z,92.4
2019-04-04T02:58:50.061Z,91.9
2019-04-04T03:00:50.102Z,91.7
2019-04-04T03:02:50.173Z,91.5
2019-04-04T03:04:50.656Z,91.6
2019-04-04T03:06:49.926Z,91.4
2019-04-04T03:08:49.965Z,91.9
2019-04-04T03:10:50.208Z,91.9
2019-04-04T03:12:50.319Z,91.6
2019-04-04T03:14:51.331Z,92.1
2019-04-04T03:16:50.497Z,92.4
2019-04-04T03:18:50.526Z,91.5
2019-04-04T03:20:51.162Z,92.0
2019-04-04T03:22:50.222Z,91.3
2019-04-04T03:24:50.311Z,91.5
2019-04-04T03:26:53.956Z,91.5
2019-04-04T03:28:49.952Z,90.7
2019-04-04T03:31:04.491Z,90.9
2019-04-04T03:32:56.079Z,91.2
2019-04-04T03:34:52.190Z,90.9
2019-04-04T03:36:50.454Z,91.4
2019-04-04T03:38:50.656Z,91.5
2019-04-04T03:40:50.646Z,90.7
2019-04-04T03:42:50.771Z,90.8
2019-04-04T03:44:54.919Z,91.9
2019-04-04T03:46:50.281Z,91.4
2019-04-04T03:48:51.551Z,91.3
2019-04-04T03:50:50.596Z,90.5
2019-04-04T03:52:50.662Z,90.2
2019-04-04T03:54:56.884Z,90.9
2019-04-04T03:56:50.089Z,91.2
2019-04-04T03:58:50.146Z,91.2
2019-04-04T04:00:50.183Z,91.0
2019-04-04T04:02:51.287Z,91.1
2019-04-04T04:04:50.592Z,91.3
2019-04-04T04:06:50.699Z,91.6
2019-04-04T04:08:55.635Z,91.6
2019-04-04T04:10:50.655Z,90.5
2019-04-04T04:12:49.801Z,90.7
2019-04-04T04:14:55.610Z,91.3
2019-04-04T04:16:49.943Z,90.0
2019-04-04T04:18:55.777Z,90.3
2019-04-04T04:20:49.862Z,89.3
2019-04-04T04:22:52.018Z,89.3
2019-04-04T04:24:50.131Z,89.4
2019-04-04T04:26:50.734Z,89.9
2019-04-04T04:28:53.922Z,90.6
2019-04-04T04:30:49.989Z,89.7
2019-04-04T04:32:50.097Z,90.1
2019-04-04T04:34:50.546Z,89.5
2019-04-04T04:36:49.900Z,89.2
2019-04-04T04:38:49.904Z,89.1
2019-04-04T04:40:50.000Z,90.1
2019-04-04T04:42:50.103Z,90.4
2019-04-04T04:44:50.273Z,89.5
2019-04-04T04:46:51.543Z,89.2
2019-04-04T04:48:50.642Z,89.2
2019-04-04T04:50:50.766Z,88.3
2019-04-04T04:52:49.810Z,88.7
2019-04-04T04:54:49.829Z,89.0
2019-04-04T04:56:50.123Z,89.2
2019-04-04T04:58:50.089Z,88.7
2019-04-04T05:00:50.123Z,89.1
2019-04-04T05:02:54.055Z,89.1
2019-04-04T05:04:50.477Z,89.0
2019-04-04T05:06:50.589Z,88.8
2019-04-04T05:08:50.760Z,88.8
2019-04-04T05:10:50.681Z,89.5
2019-04-04T05:12:54.074Z,89.1
2019-04-04T05:14:50.097Z,89.1
2019-04-04T05:16:50.230Z,89.2
2019-04-04T05:18:50.415Z,89.2
2019-04-04T05:20:50.455Z,89.2
2019-04-04T05:22:50.596Z,89.1
2019-04-04T05:25:09.394Z,88.7
2019-04-04T05:26:50.203Z,88.4
2019-04-04T05:28:50.344Z,89.3
2019-04-04T05:30:50.492Z,88.6
2019-04-04T05:32:56.963Z,88.7
2019-04-04T05:34:50.427Z,88.9
2019-04-04T05:36:50.214Z,88.8
2019-04-04T05:38:50.303Z,88.6
2019-04-04T05:40:50.500Z,88.3
2019-04-04T05:42:50.497Z,88.6
2019-04-04T05:44:50.519Z,88.0
2019-04-04T05:46:52.523Z,87.7
2019-04-04T05:48:50.511Z,87.8
2019-04-04T05:50:50.443Z,87.7
2019-04-04T05:52:50.519Z,87.8
2019-04-04T05:54:50.628Z,88.4
2019-04-04T05:56:50.096Z,87.8
2019-04-04T05:58:54.005Z,87.8
2019-04-04T06:00:50.113Z,87.3
2019-04-04T06:02:50.241Z,87.8
2019-04-04T06:04:55.702Z,87.6
2019-04-04T06:06:49.881Z,87.2
2019-04-04T06:08:50.011Z,86.6
2019-04-04T06:10:51.144Z,86.2
2019-04-04T06:12:50.179Z,86.1
2019-04-04T06:14:50.209Z,86.0
2019-04-04T06:16:50.493Z,85.5
2019-04-04T06:18:50.527Z,85.6
2019-04-04T06:20:50.650Z,85.2
2019-04-04T06:22:52.907Z,84.9
2019-04-04T06:24:52.683Z,85.8
2019-04-04T06:26:49.920Z,85.2
2019-04-04T06:28:50.028Z,84.7
2019-04-04T06:30:54.654Z,84.8
2019-04-04T06:32:49.749Z,83.8
2019-04-04T06:34:50.192Z,83.3
2019-04-04T06:36:50.428Z,83.5
2019-04-04T06:38:54.782Z,83.6
2019-04-04T06:40:49.844Z,82.6
2019-04-04T06:42:49.897Z,83.0
2019-04-04T06:44:49.976Z,82.2
2019-04-04T06:46:54.478Z,81.3
2019-04-04T06:48:50.598Z,82.3
2019-04-04T06:50:50.666Z,82.4
2019-04-04T06:52:51.528Z,81.5
2019-04-04T06:54:50.609Z,80.6
2019-04-04T06:56:49.920Z,79.6
2019-04-04T06:58:49.952Z,77.2
2019-04-04T07:00:50.674Z,78.3
2019-04-04T07:02:50.741Z,80.2
2019-04-04T07:04:50.161Z,78.4
2019-04-04T07:06:50.398Z,77.6
2019-04-04T07:08:50.481Z,75.7
2019-04-04T07:11:21.328Z,75.0
2019-04-04T07:12:50.509Z,75.6
2019-04-04T07:14:50.564Z,75.6
2019-04-04T07:16:51.168Z,74.7
2019-04-04T07:18:50.221Z,75.2
2019-04-04T07:20:50.263Z,76.0
2019-04-04T07:22:50.309Z,75.6
2019-04-04T07:24:50.361Z,76.7
2019-04-04T07:26:50.528Z,76.9
2019-04-04T07:28:54.408Z,77.0
2019-04-04T07:30:50.489Z,77.0
2019-04-04T07:32:50.547Z,75.2
2019-04-04T07:34:50.021Z,75.6
2019-04-04T07:36:52.214Z,74.8
2019-04-04T07:38:50.267Z,75.1
2019-04-04T07:40:50.268Z,74.7
2019-04-04T07:42:50.323Z,74.9
2019-04-04T07:44:50.390Z,74.9
2019-04-04T07:46:50.551Z,73.0
2019-04-04T07:48:52.726Z,73.7
2019-04-04T07:50:51.907Z,73.1
2019-04-04T07:52:49.900Z,73.0
2019-04-04T07:54:49.911Z,73.8
2019-04-04T07:56:50.154Z,72.4
2019-04-04T07:58:50.189Z,72.7
2019-04-04T08:00:50.205Z,72.5
2019-04-04T08:02:50.282Z,66
2019-04-04T08:04:50.751Z,66
2019-04-04T08:06:50.046Z,66
2019-04-04T08:08:50.029Z,66
2019-04-04T08:10:50.026Z,66
2019-04-04T08:12:50.087Z,66
2019-04-04T08:14:50.099Z,66
2019-04-04T08:16:50.173Z,66
2019-04-04T08:18:50.234Z,66
2019-04-04T08:20:50.225Z,66
2019-04-04T08:22:50.237Z,66
2019-04-04T08:24:50.238Z,66
2019-04-04T08:26:50.363Z,66
2019-04-04T08:28:50.405Z,66
2019-04-04T08:30:50.439Z,65
2019-04-04T08:32:50.459Z,65
2019-04-04T08:34:49.854Z,64
2019-04-04T08:36:50.008Z,64
2019-04-04T08:38:50.008Z,64
2019-04-04T08:40:49.971Z,64
2019-04-04T08:42:50.116Z,65
2019-04-04T08:44:50.129Z,65
2019-04-04T08:46:50.331Z,64
2019-04-04T08:48:50.358Z,64
2019-04-04T08:50:50.373Z,64
2019-04-04T08:52:50.410Z,64
2019-04-04T08:54:50.433Z,64
2019-04-04T08:56:50.662Z,64
2019-04-04T08:58:52.232Z,64
2019-04-04T09:00:50.274Z,64
2019-04-04T09:02:50.486Z,64
2019-04-04T09:04:50.054Z,63
2019-04-04T09:06:50.395Z,63
2019-04-04T09:08:50.591Z,63
2019-04-04T09:10:50.714Z,63
2019-04-04T09:12:49.982Z,63
2019-04-04T09:14:50.126Z,63
2019-04-04T09:16:50.399Z,63
2019-04-04T09:18:50.702Z,63
2019-04-04T09:20:49.966Z,63
2019-04-04T09:22:50.197Z,63
2019-04-04T09:24:50.396Z,63
2019-04-04T09:26:50.818Z,63
2019-04-04T09:28:49.939Z,62
2019-04-04T09:30:50.177Z,61
2019-04-04T09:32:50.394Z,60
2019-04-04T09:34:50.871Z,60
2019-04-04T09:36:50.164Z,60
2019-04-04T09:38:50.162Z,61
2019-04-04T09:40:50.220Z,60
2019-04-04T09:42:50.260Z,60
2019-04-04T09:44:50.568Z,60
2019-04-04T09:46:49.927Z,61
2019-04-04T09:48:50.105Z,61
2019-04-04T09:50:50.282Z,61
2019-04-04T09:52:50.538Z,61
2019-04-04T09:54:50.735Z,61
2019-04-04T09:56:50.088Z,60
2019-04-04T09:58:50.373Z,60
2019-04-04T10:00:50.583Z,60
2019-04-04T10:02:50.707Z,60
2019-04-04T10:04:50.342Z,60
2019-04-04T10:06:50.666Z,60
2019-04-04T10:08:50.940Z,60
2019-04-04T10:10:50.165Z,60
2019-04-04T10:12:50.351Z,60
2019-04-04T10:14:50.593Z,60
2019-04-04T10:16:50.825Z,60
2019-04-04T10:18:50.046Z,59
2019-04-04T10:20:50.291Z,59
2019-04-04T10:22:50.547Z,59
2019-04-04T10:24:50.721Z,59
2019-04-04T10:26:49.980Z,59
2019-04-04T10:28:50.207Z,59
2019-04-04T10:30:50.391Z,59
2019-04-04T10:32:50.540Z,59
2019-04-04T10:34:50.165Z,59
2019-04-04T10:36:50.490Z,59.9
2019-04-04T10:38:50.677Z,59.6
2019-04-04T10:40:50.907Z,60.3
2019-04-04T10:42:50.105Z,60.4
2019-04-04T10:44:50.314Z,60.3
2019-04-04T10:46:50.577Z,60.0
2019-04-04T10:48:50.743Z,61.0
2019-04-04T10:50:50.907Z,60.4
2019-04-04T10:52:50.154Z,60.9
2019-04-04T10:54:50.316Z,61.8
2019-04-04T10:56:50.662Z,61.5
2019-04-04T10:58:50.875Z,62.2
2019-04-04T11:00:50.166Z,60.3
2019-04-04T11:02:50.475Z,60.8
2019-04-04T11:04:50.007Z,59.7
2019-04-04T11:06:50.288Z,62.9
2019-04-04T11:08:50.427Z,61.9
2019-04-04T11:10:50.882Z,62.2
2019-04-04T11:12:50.073Z,63.2
2019-04-04T11:14:50.281Z,63.2
2019-04-04T11:16:50.606Z,61.9
2019-04-04T11:18:50.871Z,61.8
2019-04-04T11:20:50.137Z,58.8
2019-04-04T11:22:50.361Z,58
2019-04-04T11:24:50.556Z,58
2019-04-04T11:26:50.882Z,60.5
2019-04-04T11:28:50.042Z,60.6
2019-04-04T11:30:50.286Z,60.8
2019-04-04T11:32:50.658Z,60.8
2019-04-04T11:34:54.272Z,57.4
2019-04-04T11:36:50.714Z,57.4
2019-04-04T11:38:49.974Z,57
2019-04-04T11:40:50.132Z,57
2019-04-04T11:42:50.367Z,57
2019-04-04T11:44:50.635Z,59.8
2019-04-04T11:46:50.091Z,59.8
2019-04-04T11:48:50.237Z,59.3
2019-04-04T11:50:50.405Z,58.4
2019-04-04T11:52:50.540Z,58.8
2019-04-04T11:54:50.686Z,58.3
2019-04-04T11:56:50.192Z,58.1
2019-04-04T11:58:50.383Z,57.3
2019-04-04T12:00:50.580Z,57.3
2019-04-04T12:02:50.786Z,53.6
2019-04-04T12:04:50.398Z,56
2019-04-04T12:06:50.622Z,56
2019-04-04T12:08:50.810Z,56
2019-04-04T12:10:50.015Z,56
2019-04-04T12:12:50.338Z,56.9
2019-04-04T12:14:50.587Z,56.1
2019-04-04T12:16:50.883Z,56.1
2019-04-04T12:18:50.102Z,58.4
2019-04-04T12:20:50.296Z,58.8
2019-04-04T12:22:50.478Z,58.9
2019-04-04T12:24:50.662Z,59.0
2019-04-04T12:26:50.059Z,59.2
2019-04-04T12:28:50.346Z,58.7
2019-04-04T12:30:50.547Z,57.7
2019-04-04T12:32:50.784Z,57.1
2019-04-04T12:34:50.287Z,57.4
2019-04-04T12:36:50.671Z,56.5
2019-04-04T12:38:50.872Z,55.0
2019-04-04T12:40:50.004Z,54.3
2019-04-04T12:42:50.239Z,55
2019-04-04T12:44:50.463Z,56.0
2019-04-04T12:46:50.843Z,57.9
2019-04-04T12:48:49.994Z,57.3
2019-04-04T12:50:50.298Z,58.9
2019-04-04T12:52:50.466Z,58.7
2019-04-04T12:54:50.667Z,59.2
2019-04-04T12:56:49.965Z,58.8
2019-04-04T12:58:50.099Z,59.6
2019-04-04T13:00:50.307Z,60.2
2019-04-04T13:02:50.502Z,60.9
2019-04-04T13:04:50.197Z,61.3
2019-04-04T13:06:50.537Z,62.0
2019-04-04T13:08:50.716Z,64.0
2019-04-04T13:10:50.852Z,64.2
2019-04-04T13:12:49.972Z,63.8
2019-04-04T13:14:50.274Z,63.0
2019-04-04T13:16:50.569Z,63.4
2019-04-04T13:18:50.909Z,63.4
2019-04-04T13:20:50.082Z,62.7
2019-04-04T13:22:50.322Z,62.2
2019-04-04T13:24:50.408Z,60.5
2019-04-04T13:26:50.743Z,59.6
2019-04-04T13:28:50.818Z,58.7
2019-04-04T13:30:50.085Z,58.3
2019-04-04T13:32:50.252Z,60.8
2019-04-04T13:35:00.485Z,60.8
2019-04-04T13:36:50.726Z,62.9
2019-04-04T13:38:50.016Z,63.1
2019-04-04T13:40:50.124Z,61.9
2019-04-04T13:42:54.006Z,60.6
2019-04-04T13:44:53.927Z,56
2019-04-04T13:46:50.243Z,56
2019-04-04T13:48:50.450Z,56
2019-04-04T13:50:50.667Z,56
2019-04-04T13:52:50.849Z,56.6
2019-04-04T13:54:50.039Z,60.2
2019-04-04T13:56:50.374Z,60.2
2019-04-04T13:58:50.643Z,61.9
2019-04-04T14:00:50.804Z,60.8
2019-04-04T14:02:50.049Z,62.3
2019-04-04T14:04:50.626Z,63.3
2019-04-04T14:06:50.111Z,63.0
2019-04-04T14:08:50.261Z,63.6
2019-04-04T14:10:59.082Z,63.6
2019-04-04T14:12:50.275Z,64.4
2019-04-04T14:14:50.586Z,67.0
2019-04-04T14:16:49.799Z,67.8
2019-04-04T14:18:49.818Z,66.2
2019-04-04T14:21:04.515Z,67.1
2019-04-04T14:22:52.180Z,67.0
2019-04-04T14:24:50.183Z,66.5
2019-04-04T14:26:50.291Z,67.3
2019-04-04T14:28:50.282Z,67.4
2019-04-04T14:30:50.250Z,67.1
2019-04-04T14:32:50.237Z,66.4
2019-04-04T14:34:50.700Z,66.8
2019-04-04T14:36:49.858Z,67.6
2019-04-04T14:38:49.870Z,68.3
2019-04-04T14:40:49.886Z,67.5
2019-04-04T14:42:50.035Z,68.0
2019-04-04T14:44:50.079Z,67.8
2019-04-04T14:46:50.146Z,67.8
2019-04-04T14:48:50.183Z,68.9
2019-04-04T14:50:50.147Z,69.2
2019-04-04T14:52:52.707Z,69.2
2019-04-04T14:54:49.804Z,69.3
2019-04-04T14:56:50.047Z,69.6
2019-04-04T14:58:50.092Z,69.2
2019-04-04T15:00:50.066Z,69.1
2019-04-04T15:02:50.111Z,69.2
2019-04-04T15:04:50.491Z,69.3
2019-04-04T15:06:50.737Z,69.4
2019-04-04T15:08:49.818Z,69.2
2019-04-04T15:10:49.869Z,68.7
2019-04-04T15:12:49.852Z,68.8
2019-04-04T15:14:49.969Z,69.3
2019-04-04T15:16:50.141Z,69.4
2019-04-04T15:18:50.134Z,69.4
2019-04-04T15:20:50.148Z,70.0
2019-04-04T15:22:50.169Z,70.1
2019-04-04T15:24:50.267Z,71.6
2019-04-04T15:26:50.483Z,72.3
2019-04-04T15:28:50.473Z,72.3
2019-04-04T15:30:50.427Z,73.5
2019-04-04T15:32:50.570Z,73.7
2019-04-04T15:34:49.975Z,73.9
2019-04-04T15:36:50.195Z,73.9
2019-04-04T15:38:50.241Z,73.5
2019-04-04T15:40:50.203Z,72.6
2019-04-04T15:42:50.240Z,72.0
2019-04-04T15:44:50.251Z,71.7
2019-04-04T15:46:50.434Z,71.6
2019-04-04T15:48:50.521Z,71.8
2019-04-04T15:50:50.542Z,72.0
2019-04-04T15:52:50.723Z,72.3
2019-04-04T15:54:49.839Z,72.1
2019-04-04T15:56:50.136Z,72.7
2019-04-04T15:58:50.161Z,72.6
2019-04-04T16:00:50.256Z,73.4
2019-04-04T16:02:50.432Z,72.8
2019-04-04T16:04:49.796Z,73.0
2019-04-04T16:06:50.035Z,73.2
2019-04-04T16:08:50.134Z,73.2
2019-04-04T16:10:50.211Z,72.5
2019-04-04T16:12:50.244Z,72.3
2019-04-04T16:14:50.222Z,72.3
2019-04-04T16:16:50.351Z,73.0
2019-04-04T16:18:50.384Z,73.3
2019-04-04T16:20:50.445Z,73.4
2019-04-04T16:22:50.548Z,73.4
2019-04-04T16:24:50.493Z,73.7
2019-04-04T16:26:50.615Z,73.9
2019-04-04T16:28:50.634Z,74.3
2019-04-04T16:30:50.722Z,74.2
2019-04-04T16:32:50.697Z,74.2
2019-04-04T16:34:53.119Z,74.6
2019-04-04T16:36:50.347Z,74.5
2019-04-04T16:38:50.524Z,74.2
2019-04-04T16:40:50.515Z,74.2
2019-04-04T16:42:50.484Z,74.3
2019-04-04T16:44:50.462Z,74.9
2019-04-04T16:46:50.729Z,74.7
2019-04-04T16:48:50.754Z,74.7
2019-04-04T16:50:49.774Z,74.8
2019-04-04T16:52:49.937Z,74.4
2019-04-04T16:54:50.119Z,74.8
2019-04-04T16:56:50.262Z,74.8
2019-04-04T16:58:50.316Z,75.1
2019-04-04T17:00:50.422Z,75.3
2019-04-04T17:02:50.449Z,75.5
2019-04-04T17:04:49.788Z,76.2
2019-04-04T17:06:49.952Z,76.2
2019-04-04T17:08:49.967Z,77.0
2019-04-04T17:10:49.917Z,77.5
2019-04-04T17:12:50.022Z,77.2
2019-04-04T17:14:50.004Z,77.3
2019-04-04T17:16:50.259Z,77.9
2019-04-04T17:18:50.276Z,78.2
2019-04-04T17:20:50.564Z,78.2
2019-04-04T17:22:50.624Z,78.8
2019-04-04T17:24:50.579Z,78.9
2019-04-04T17:26:49.793Z,79.1
2019-04-04T17:28:50.388Z,79.4
2019-04-04T17:30:50.956Z,79.6
2019-04-04T17:32:50.633Z,79.3
2019-04-04T17:34:50.622Z,79.6
2019-04-04T17:36:50.350Z,80.6
2019-04-04T17:38:50.342Z,80.7
2019-04-04T17:40:50.381Z,80.9
2019-04-04T17:42:50.878Z,80.8
2019-04-04T17:44:50.610Z,81.2
2019-04-04T17:46:49.797Z,81.6
2019-04-04T17:48:49.896Z,81.9
2019-04-04T17:50:49.968Z,82.2
2019-04-04T17:52:50.446Z,82.4
2019-04-04T17:54:51.165Z,82.4
2019-04-04T17:56:50.749Z,82.6
2019-04-04T17:58:49.761Z,83.0
2019-04-04T18:00:49.834Z,83.0
2019-04-04T18:02:49.882Z,83.0
2019-04-04T18:04:50.367Z,82.9
2019-04-04T18:06:50.680Z,82.9
2019-04-04T18:08:50.709Z,82.8
2019-04-04T18:10:50.776Z,82.8
2019-04-04T18:12:49.880Z,82.3
2019-04-04T18:14:49.958Z,82.0
2019-04-04T18:16:50.184Z,81.6
2019-04-04T18:18:50.247Z,81.6
2019-04-04T18:20:50.330Z,81.6
2019-04-04T18:22:50.438Z,81.6
2019-04-04T18:24:50.547Z,81.9
2019-04-04T18:26:50.694Z,82.2
2019-04-04T18:28:50.762Z,82.3
2019-04-04T18:30:50.700Z,82.2
2019-04-04T18:32:49.790Z,82.2
2019-04-04T18:34:50.801Z,82.2
2019-04-04T18:36:50.129Z,82.7
2019-04-04T18:38:50.354Z,82.7
2019-04-04T18:40:50.327Z,83.1
2019-04-04T18:42:54.334Z,83.3
2019-04-04T18:44:50.355Z,83.5
2019-04-04T18:46:50.514Z,83.6
2019-04-04T18:48:50.635Z,83.7
2019-04-04T18:50:50.661Z,84.0
2019-04-04T18:52:50.756Z,84.4
2019-04-04T18:54:49.776Z,84.4
2019-04-04T18:56:50.030Z,84.5
2019-04-04T18:58:50.103Z,84.5
2019-04-04T19:00:50.124Z,84.5
2019-04-04T19:02:50.203Z,84.8
2019-04-04T19:04:50.558Z,85.0
2019-04-04T19:06:50.666Z,85.2
2019-04-04T19:08:51.262Z,85.1
2019-04-04T19:10:50.360Z,85.4
2019-04-04T19:12:50.371Z,85.9
2019-04-04T19:14:50.438Z,86.0
2019-04-04T19:16:50.698Z,86.0
2019-04-04T19:18:50.698Z,86.1
2019-04-04T19:20:50.756Z,86.4
2019-04-04T19:22:49.770Z,86.4
2019-04-04T19:24:49.826Z,86.7
2019-04-04T19:26:50.117Z,86.7
2019-04-04T19:28:50.190Z,86.4
2019-04-04T19:30:50.181Z,86.5
2019-04-04T19:32:50.290Z,86.7
2019-04-04T19:34:50.612Z,87.0
2019-04-04T19:36:49.781Z,87.0
2019-04-04T19:38:49.845Z,87.2
2019-04-04T19:40:49.885Z,87.3
2019-04-04T19:42:49.861Z,87.6
2019-04-04T19:44:54.186Z,88.0
2019-04-04T19:46:50.387Z,88.0
2019-04-04T19:48:50.481Z,88.3
2019-04-04T19:50:50.580Z,88.3
2019-04-04T19:52:50.581Z,88.3
2019-04-04T19:54:50.610Z,88.7
2019-04-04T19:56:49.922Z,89.1
2019-04-04T19:58:49.980Z,89.1
2019-04-04T20:00:49.957Z,89.0
2019-04-04T20:02:50.046Z,89.2
2019-04-04T20:04:50.442Z,89.3
2019-04-04T20:06:49.852Z,89.7
2019-04-04T20:08:54.091Z,90.1
2019-04-04T20:10:50.131Z,90.7
2019-04-04T20:12:50.167Z,91.0
2019-04-04T20:14:50.226Z,91.0
2019-04-04T20:16:50.608Z,91.6
2019-04-04T20:18:50.611Z,91.6
2019-04-04T20:20:50.583Z,91.5
2019-04-04T20:22:50.749Z,92.2
2019-04-04T20:24:49.798Z,92.1
2019-04-04T20:26:50.091Z,92.2
2019-04-04T20:28:50.181Z,91.8
2019-04-04T20:30:50.263Z,92.0
2019-04-04T20:32:50.380Z,92.1
2019-04-04T20:34:50.760Z,92.3
2019-04-04T20:36:50.010Z,92.4
2019-04-04T20:38:50.055Z,92.4
2019-04-04T20:40:50.146Z,92.5
2019-04-04T20:42:50.290Z,92.5
2019-04-04T20:44:50.471Z,92.5
2019-04-04T20:46:50.629Z,92.8
2019-04-04T20:48:50.671Z,92.8
2019-04-04T20:50:50.694Z,92.9
2019-04-04T20:52:49.776Z,93.2
2019-04-04T20:54:49.783Z,93.1
2019-04-04T20:56:50.029Z,93.2
2019-04-04T20:58:50.110Z,93.6
2019-04-04T21:00:50.189Z,94.0
2019-04-04T21:02:50.264Z,94.4
2019-04-04T21:04:49.800Z,94.5
2019-04-04T21:06:49.943Z,94.9
2019-04-04T21:08:50.021Z,95.2
2019-04-04T21:10:50.057Z,95.2
2019-04-04T21:12:50.127Z,94.7
2019-04-04T21:14:50.126Z,94.7
2019-04-04T21:16:50.335Z,95.1
2019-04-04T21:18:50.447Z,95.4
2019-04-04T21:20:50.516Z,95.1
2019-04-04T21:22:50.710Z,95.1
2019-04-04T21:24:49.811Z,95.0
2019-04-04T21:26:50.187Z,95.0
2019-04-04T21:28:50.220Z,95.0
2019-04-04T21:30:50.323Z,94.6
2019-04-04T21:32:50.407Z,94.6
2019-04-04T21:34:50.725Z,94.6
2019-04-04T21:36:50.002Z,94.5
2019-04-04T21:38:50.126Z,94.7
2019-04-04T21:40:50.134Z,94.9
2019-04-04T21:42:50.243Z,95.3
2019-04-04T21:44:50.276Z,95.7
2019-04-04T21:46:50.439Z,95.2
2019-04-04T21:48:50.459Z,95.6
2019-04-04T21:50:50.619Z,95.6
2019-04-04T21:52:50.654Z,96.1
2019-04-04T21:54:50.596Z,96.6
2019-04-04T21:56:49.869Z,96.3
2019-04-04T21:58:50.084Z,96.9
2019-04-04T22:00:50.174Z,96.8
2019-04-04T22:02:50.203Z,96.7
2019-04-04T22:04:50.665Z,96.8
2019-04-04T22:06:49.843Z,97.1
2019-04-04T22:08:49.928Z,97.0
2019-04-04T22:10:49.909Z,97.4
2019-04-04T22:12:50.095Z,98.2
2019-04-04T22:14:50.198Z,98.8
2019-04-04T22:16:50.313Z,99.2
2019-04-04T22:18:50.380Z,99.5
2019-04-04T22:20:50.431Z,99.8
2019-04-04T22:22:50.512Z,99.6
2019-04-04T22:24:50.577Z,100.0
2019-04-04T22:26:50.769Z,100.0
2019-04-04T22:28:49.800Z,100.0
2019-04-04T22:30:50.083Z,100.0
2019-04-04T22:32:50.152Z,100.0
2019-04-04T22:34:50.541Z,100.0
2019-04-04T22:36:50.654Z,100.0
2019-04-04T22:38:50.719Z,100.0
2019-04-04T22:40:50.727Z,100.0
2019-04-04T22:42:49.909Z,100.0
2019-04-04T22:44:49.952Z,100.0
2019-04-04T22:46:50.187Z,100.0
2019-04-04T22:48:50.191Z,100.0
2019-04-04T22:50:50.377Z,100.0
2019-04-04T22:52:50.441Z,100.0
2019-04-04T22:54:50.511Z,100.0
2019-04-04T22:56:50.760Z,100.0
2019-04-04T22:58:49.919Z,100.0
2019-04-04T23:00:49.958Z,100.0
2019-04-04T23:02:50.177Z,100.0
2019-04-04T23:04:50.658Z,100.0
2019-04-04T23:06:49.957Z,100.0
2019-04-04T23:08:50.097Z,100.0
2019-04-04T23:10:50.141Z,100.0
2019-04-04T23:12:50.263Z,100.0
2019-04-04T23:14:50.377Z,100.0
2019-04-04T23:16:50.570Z,100.0
2019-04-04T23:18:50.686Z,100.0
2019-04-04T23:20:50.666Z,100.0
2019-04-04T23:22:53.675Z,100.0
2019-04-04T23:24:50.672Z,100.0
2019-04-04T23:26:49.970Z,100.0
2019-04-04T23:28:49.987Z,100.0
2019-04-04T23:30:50.034Z,100.0
2019-04-04T23:32:50.099Z,100.0
2019-04-04T23:34:50.487Z,100.0
2019-04-04T23:36:50.638Z,100.0
2019-04-04T23:38:50.744Z,100.0
2019-04-04T23:40:49.792Z,100.0
2019-04-04T23:42:49.868Z,100.0
2019-04-04T23:45:01.918Z,100.0
2019-04-04T23:46:50.025Z,100.0
2019-04-04T23:48:50.031Z,100.0
2019-04-04T23:50:50.070Z,100.0
2019-04-04T23:52:50.082Z,100.0
2019-04-04T23:54:50.148Z,100.0
2019-04-04T23:56:50.289Z,100.0
2019-04-04T23:58:50.495Z,100.0
